sensor_id;sensor_type;location;lat;lon;timestamp;temperature;humidity
55785;DHT22;41709;52.536;5.688;2022-08-21T00:02:26;17.50;72.30
55785;DHT22;41709;52.536;5.688;2022-08-21T00:04:52;17.50;72.30
55785;DHT22;41709;52.536;5.688;2022-08-21T00:07:19;17.50;72.60
55785;DHT22;41709;52.536;5.688;2022-08-21T00:09:45;17.50;73.10
55785;DHT22;41709;52.536;5.688;2022-08-21T00:12:11;17.50;73.10
55785;DHT22;41709;52.536;5.688;2022-08-21T00:14:37;17.50;73.30
55785;DHT22;41709;52.536;5.688;2022-08-21T00:17:04;17.50;73.30
55785;DHT22;41709;52.536;5.688;2022-08-21T00:19:31;17.40;73.40
55785;DHT22;41709;52.536;5.688;2022-08-21T00:21:57;17.50;73.90
55785;DHT22;41709;52.536;5.688;2022-08-21T00:24:23;17.40;73.80
55785;DHT22;41709;52.536;5.688;2022-08-21T00:26:50;17.40;74.00
55785;DHT22;41709;52.536;5.688;2022-08-21T00:29:16;17.40;74.90
55785;DHT22;41709;52.536;5.688;2022-08-21T00:31:42;17.40;74.40
55785;DHT22;41709;52.536;5.688;2022-08-21T00:34:08;17.40;74.60
55785;DHT22;41709;52.536;5.688;2022-08-21T00:36:35;17.30;74.50
55785;DHT22;41709;52.536;5.688;2022-08-21T00:39:01;17.30;74.50
55785;DHT22;41709;52.536;5.688;2022-08-21T00:41:27;17.30;74.60
55785;DHT22;41709;52.536;5.688;2022-08-21T00:43:54;17.30;74.50
55785;DHT22;41709;52.536;5.688;2022-08-21T00:46:20;17.30;74.60
55785;DHT22;41709;52.536;5.688;2022-08-21T00:48:46;17.30;74.70
55785;DHT22;41709;52.536;5.688;2022-08-21T00:51:24;17.20;74.60
55785;DHT22;41709;52.536;5.688;2022-08-21T00:53:55;17.20;74.50
55785;DHT22;41709;52.536;5.688;2022-08-21T00:56:23;17.20;74.30
55785;DHT22;41709;52.536;5.688;2022-08-21T00:58:49;17.20;74.60
55785;DHT22;41709;52.536;5.688;2022-08-21T01:01:16;17.20;74.60
55785;DHT22;41709;52.536;5.688;2022-08-21T01:03:42;17.20;74.60
55785;DHT22;41709;52.536;5.688;2022-08-21T01:06:08;17.20;74.70
55785;DHT22;41709;52.536;5.688;2022-08-21T01:08:34;17.30;74.80
55785;DHT22;41709;52.536;5.688;2022-08-21T01:11:01;17.10;74.70
55785;DHT22;41709;52.536;5.688;2022-08-21T01:13:29;17.10;74.50
55785;DHT22;41709;52.536;5.688;2022-08-21T01:15:58;17.20;74.80
55785;DHT22;41709;52.536;5.688;2022-08-21T01:18:26;17.10;74.80
55785;DHT22;41709;52.536;5.688;2022-08-21T01:23:34;17.10;75.10
55785;DHT22;41709;52.536;5.688;2022-08-21T01:26:00;17.00;74.90
55785;DHT22;41709;52.536;5.688;2022-08-21T01:28:26;17.00;75.00
55785;DHT22;41709;52.536;5.688;2022-08-21T01:30:53;17.00;75.00
55785;DHT22;41709;52.536;5.688;2022-08-21T01:33:22;17.00;75.10
55785;DHT22;41709;52.536;5.688;2022-08-21T01:35:49;17.00;75.10
55785;DHT22;41709;52.536;5.688;2022-08-21T01:38:15;16.90;75.20
55785;DHT22;41709;52.536;5.688;2022-08-21T01:40:41;16.90;75.00
55785;DHT22;41709;52.536;5.688;2022-08-21T01:43:07;16.90;75.40
55785;DHT22;41709;52.536;5.688;2022-08-21T01:45:32;16.90;75.30
55785;DHT22;41709;52.536;5.688;2022-08-21T01:47:58;16.90;75.30
55785;DHT22;41709;52.536;5.688;2022-08-21T01:50:24;16.90;75.20
55785;DHT22;41709;52.536;5.688;2022-08-21T01:52:50;16.80;75.30
55785;DHT22;41709;52.536;5.688;2022-08-21T01:55:17;16.90;75.20
55785;DHT22;41709;52.536;5.688;2022-08-21T01:57:44;16.80;75.00
55785;DHT22;41709;52.536;5.688;2022-08-21T02:00:13;16.80;75.20
55785;DHT22;41709;52.536;5.688;2022-08-21T02:02:40;16.80;75.20
55785;DHT22;41709;52.536;5.688;2022-08-21T02:05:09;16.80;75.30
55785;DHT22;41709;52.536;5.688;2022-08-21T02:07:41;16.70;75.40
55785;DHT22;41709;52.536;5.688;2022-08-21T02:10:09;16.70;75.50
55785;DHT22;41709;52.536;5.688;2022-08-21T02:12:35;16.70;75.60
55785;DHT22;41709;52.536;5.688;2022-08-21T02:15:00;16.70;75.80
55785;DHT22;41709;52.536;5.688;2022-08-21T02:17:26;16.70;75.90
55785;DHT22;41709;52.536;5.688;2022-08-21T02:19:52;16.70;75.90
55785;DHT22;41709;52.536;5.688;2022-08-21T02:22:17;16.70;76.00
55785;DHT22;41709;52.536;5.688;2022-08-21T02:24:43;16.70;76.00
55785;DHT22;41709;52.536;5.688;2022-08-21T02:27:09;16.70;76.00
55785;DHT22;41709;52.536;5.688;2022-08-21T02:29:34;16.60;76.00
55785;DHT22;41709;52.536;5.688;2022-08-21T02:32:00;16.70;76.20
55785;DHT22;41709;52.536;5.688;2022-08-21T02:34:26;16.60;76.10
55785;DHT22;41709;52.536;5.688;2022-08-21T02:36:51;16.60;76.20
55785;DHT22;41709;52.536;5.688;2022-08-21T02:39:17;16.60;76.00
55785;DHT22;41709;52.536;5.688;2022-08-21T02:41:42;16.60;75.90
55785;DHT22;41709;52.536;5.688;2022-08-21T02:44:08;16.70;76.20
55785;DHT22;41709;52.536;5.688;2022-08-21T02:46:34;16.60;76.20
55785;DHT22;41709;52.536;5.688;2022-08-21T02:48:59;16.60;76.20
55785;DHT22;41709;52.536;5.688;2022-08-21T02:51:25;16.60;76.30
55785;DHT22;41709;52.536;5.688;2022-08-21T02:53:52;16.50;76.20
55785;DHT22;41709;52.536;5.688;2022-08-21T02:56:20;16.50;76.40
55785;DHT22;41709;52.536;5.688;2022-08-21T02:58:48;16.50;76.30
55785;DHT22;41709;52.536;5.688;2022-08-21T03:01:14;16.50;76.40
55785;DHT22;41709;52.536;5.688;2022-08-21T03:03:42;16.50;76.50
55785;DHT22;41709;52.536;5.688;2022-08-21T03:06:09;16.50;76.60
55785;DHT22;41709;52.536;5.688;2022-08-21T03:08:36;16.50;76.70
55785;DHT22;41709;52.536;5.688;2022-08-21T03:11:03;16.40;76.60
55785;DHT22;41709;52.536;5.688;2022-08-21T03:13:28;16.40;76.70
55785;DHT22;41709;52.536;5.688;2022-08-21T03:15:54;16.40;76.60
55785;DHT22;41709;52.536;5.688;2022-08-21T03:18:20;16.40;76.90
55785;DHT22;41709;52.536;5.688;2022-08-21T03:20:46;16.40;76.80
55785;DHT22;41709;52.536;5.688;2022-08-21T03:23:12;16.40;76.90
55785;DHT22;41709;52.536;5.688;2022-08-21T03:25:39;16.30;76.80
55785;DHT22;41709;52.536;5.688;2022-08-21T03:28:06;16.30;76.80
55785;DHT22;41709;52.536;5.688;2022-08-21T03:30:32;16.30;76.80
55785;DHT22;41709;52.536;5.688;2022-08-21T03:32:59;16.30;76.80
55785;DHT22;41709;52.536;5.688;2022-08-21T03:35:26;16.30;76.90
55785;DHT22;41709;52.536;5.688;2022-08-21T03:37:53;16.30;77.10
55785;DHT22;41709;52.536;5.688;2022-08-21T03:40:20;16.30;77.00
55785;DHT22;41709;52.536;5.688;2022-08-21T03:42:46;16.30;76.80
55785;DHT22;41709;52.536;5.688;2022-08-21T03:45:13;16.30;76.80
55785;DHT22;41709;52.536;5.688;2022-08-21T03:47:49;16.20;76.80
55785;DHT22;41709;52.536;5.688;2022-08-21T03:50:15;16.20;76.80
55785;DHT22;41709;52.536;5.688;2022-08-21T03:52:42;16.20;77.00
55785;DHT22;41709;52.536;5.688;2022-08-21T03:55:08;16.20;77.10
55785;DHT22;41709;52.536;5.688;2022-08-21T03:57:33;16.20;77.20
55785;DHT22;41709;52.536;5.688;2022-08-21T03:59:59;16.20;77.30
55785;DHT22;41709;52.536;5.688;2022-08-21T04:02:24;16.10;77.20
55785;DHT22;41709;52.536;5.688;2022-08-21T04:04:50;16.10;77.40
55785;DHT22;41709;52.536;5.688;2022-08-21T04:07:16;16.20;77.40
55785;DHT22;41709;52.536;5.688;2022-08-21T04:09:43;16.10;77.50
55785;DHT22;41709;52.536;5.688;2022-08-21T04:12:08;16.10;77.80
55785;DHT22;41709;52.536;5.688;2022-08-21T04:14:34;16.10;77.80
55785;DHT22;41709;52.536;5.688;2022-08-21T04:16:59;16.10;78.00
55785;DHT22;41709;52.536;5.688;2022-08-21T04:19:25;16.10;78.80
55785;DHT22;41709;52.536;5.688;2022-08-21T04:21:51;16.10;78.20
55785;DHT22;41709;52.536;5.688;2022-08-21T04:24:16;16.00;78.20
55785;DHT22;41709;52.536;5.688;2022-08-21T04:26:42;16.00;78.20
55785;DHT22;41709;52.536;5.688;2022-08-21T04:29:07;16.00;78.30
55785;DHT22;41709;52.536;5.688;2022-08-21T04:31:35;16.00;78.50
55785;DHT22;41709;52.536;5.688;2022-08-21T04:34:03;16.00;78.60
55785;DHT22;41709;52.536;5.688;2022-08-21T04:36:30;16.00;78.60
55785;DHT22;41709;52.536;5.688;2022-08-21T04:38:55;16.00;78.60
55785;DHT22;41709;52.536;5.688;2022-08-21T04:41:21;16.00;78.80
55785;DHT22;41709;52.536;5.688;2022-08-21T04:43:46;16.00;79.00
55785;DHT22;41709;52.536;5.688;2022-08-21T04:46:12;15.90;79.00
55785;DHT22;41709;52.536;5.688;2022-08-21T04:48:38;16.00;79.10
55785;DHT22;41709;52.536;5.688;2022-08-21T04:51:13;15.90;79.00
55785;DHT22;41709;52.536;5.688;2022-08-21T04:53:44;15.90;79.00
55785;DHT22;41709;52.536;5.688;2022-08-21T04:56:20;16.00;79.10
55785;DHT22;41709;52.536;5.688;2022-08-21T04:58:47;16.00;79.10
55785;DHT22;41709;52.536;5.688;2022-08-21T05:01:19;16.00;79.10
55785;DHT22;41709;52.536;5.688;2022-08-21T05:03:47;16.00;79.20
55785;DHT22;41709;52.536;5.688;2022-08-21T05:06:15;16.00;79.20
55785;DHT22;41709;52.536;5.688;2022-08-21T05:08:42;16.00;79.10
55785;DHT22;41709;52.536;5.688;2022-08-21T05:11:09;16.00;79.10
55785;DHT22;41709;52.536;5.688;2022-08-21T05:13:35;16.00;79.00
55785;DHT22;41709;52.536;5.688;2022-08-21T05:16:01;16.00;78.80
55785;DHT22;41709;52.536;5.688;2022-08-21T05:18:27;16.00;78.70
55785;DHT22;41709;52.536;5.688;2022-08-21T05:20:52;16.10;78.60
55785;DHT22;41709;52.536;5.688;2022-08-21T05:23:18;16.10;78.60
55785;DHT22;41709;52.536;5.688;2022-08-21T05:25:43;16.10;78.40
55785;DHT22;41709;52.536;5.688;2022-08-21T05:28:10;16.10;78.40
55785;DHT22;41709;52.536;5.688;2022-08-21T05:30:37;16.10;78.30
55785;DHT22;41709;52.536;5.688;2022-08-21T05:33:04;16.10;78.30
55785;DHT22;41709;52.536;5.688;2022-08-21T05:35:31;16.10;78.00
55785;DHT22;41709;52.536;5.688;2022-08-21T05:37:58;16.20;78.00
55785;DHT22;41709;52.536;5.688;2022-08-21T05:40:24;16.20;77.90
55785;DHT22;41709;52.536;5.688;2022-08-21T05:42:51;16.30;78.00
55785;DHT22;41709;52.536;5.688;2022-08-21T05:45:17;16.30;78.10
55785;DHT22;41709;52.536;5.688;2022-08-21T05:47:43;16.30;78.10
55785;DHT22;41709;52.536;5.688;2022-08-21T05:50:09;16.40;78.30
55785;DHT22;41709;52.536;5.688;2022-08-21T05:52:34;16.30;78.80
55785;DHT22;41709;52.536;5.688;2022-08-21T05:55:00;16.40;78.20
55785;DHT22;41709;52.536;5.688;2022-08-21T05:57:26;16.40;78.20
55785;DHT22;41709;52.536;5.688;2022-08-21T05:59:52;16.40;78.40
55785;DHT22;41709;52.536;5.688;2022-08-21T06:02:18;16.50;78.50
55785;DHT22;41709;52.536;5.688;2022-08-21T06:04:44;16.40;78.30
55785;DHT22;41709;52.536;5.688;2022-08-21T06:07:10;16.50;78.50
55785;DHT22;41709;52.536;5.688;2022-08-21T06:09:36;16.50;78.70
55785;DHT22;41709;52.536;5.688;2022-08-21T06:12:09;16.50;78.90
55785;DHT22;41709;52.536;5.688;2022-08-21T06:14:37;16.40;78.80
55785;DHT22;41709;52.536;5.688;2022-08-21T06:17:09;16.60;79.10
55785;DHT22;41709;52.536;5.688;2022-08-21T06:19:36;16.60;79.00
55785;DHT22;41709;52.536;5.688;2022-08-21T06:22:02;16.70;79.10
55785;DHT22;41709;52.536;5.688;2022-08-21T06:24:28;16.60;79.10
55785;DHT22;41709;52.536;5.688;2022-08-21T06:26:54;16.60;79.30
55785;DHT22;41709;52.536;5.688;2022-08-21T06:29:20;16.70;79.50
55785;DHT22;41709;52.536;5.688;2022-08-21T06:31:47;16.80;79.70
55785;DHT22;41709;52.536;5.688;2022-08-21T06:34:13;16.80;79.70
55785;DHT22;41709;52.536;5.688;2022-08-21T06:36:39;16.80;79.40
55785;DHT22;41709;52.536;5.688;2022-08-21T06:39:04;16.90;79.60
55785;DHT22;41709;52.536;5.688;2022-08-21T06:41:30;17.00;79.50
55785;DHT22;41709;52.536;5.688;2022-08-21T06:43:57;17.10;79.50
55785;DHT22;41709;52.536;5.688;2022-08-21T06:46:24;17.20;79.20
55785;DHT22;41709;52.536;5.688;2022-08-21T06:48:51;17.20;78.60
55785;DHT22;41709;52.536;5.688;2022-08-21T06:51:16;17.30;78.30
55785;DHT22;41709;52.536;5.688;2022-08-21T06:53:42;17.30;78.10
55785;DHT22;41709;52.536;5.688;2022-08-21T06:56:07;17.40;78.00
55785;DHT22;41709;52.536;5.688;2022-08-21T06:58:33;17.50;77.90
55785;DHT22;41709;52.536;5.688;2022-08-21T07:00:59;17.50;77.50
55785;DHT22;41709;52.536;5.688;2022-08-21T07:03:34;17.60;77.80
55785;DHT22;41709;52.536;5.688;2022-08-21T07:06:00;17.70;77.90
55785;DHT22;41709;52.536;5.688;2022-08-21T07:08:27;17.70;77.60
55785;DHT22;41709;52.536;5.688;2022-08-21T07:10:56;17.80;77.60
55785;DHT22;41709;52.536;5.688;2022-08-21T07:13:21;17.90;77.30
55785;DHT22;41709;52.536;5.688;2022-08-21T07:15:47;18.00;77.40
55785;DHT22;41709;52.536;5.688;2022-08-21T07:18:13;18.00;76.70
55785;DHT22;41709;52.536;5.688;2022-08-21T07:20:39;18.10;76.40
55785;DHT22;41709;52.536;5.688;2022-08-21T07:23:08;18.30;75.90
55785;DHT22;41709;52.536;5.688;2022-08-21T07:25:36;18.20;76.30
55785;DHT22;41709;52.536;5.688;2022-08-21T07:28:02;18.30;76.30
55785;DHT22;41709;52.536;5.688;2022-08-21T07:30:27;18.30;76.30
55785;DHT22;41709;52.536;5.688;2022-08-21T07:32:54;18.30;76.20
55785;DHT22;41709;52.536;5.688;2022-08-21T07:35:21;18.30;76.40
55785;DHT22;41709;52.536;5.688;2022-08-21T07:37:47;18.30;76.80
55785;DHT22;41709;52.536;5.688;2022-08-21T07:40:13;18.30;77.00
55785;DHT22;41709;52.536;5.688;2022-08-21T07:42:45;18.30;77.30
55785;DHT22;41709;52.536;5.688;2022-08-21T07:45:13;18.50;76.80
55785;DHT22;41709;52.536;5.688;2022-08-21T07:47:39;18.40;76.20
55785;DHT22;41709;52.536;5.688;2022-08-21T07:50:06;18.40;77.00
55785;DHT22;41709;52.536;5.688;2022-08-21T07:52:32;18.40;76.90
55785;DHT22;41709;52.536;5.688;2022-08-21T07:54:58;18.50;77.10
55785;DHT22;41709;52.536;5.688;2022-08-21T07:57:23;18.50;76.70
55785;DHT22;41709;52.536;5.688;2022-08-21T07:59:49;18.50;76.80
55785;DHT22;41709;52.536;5.688;2022-08-21T08:02:25;18.60;76.80
55785;DHT22;41709;52.536;5.688;2022-08-21T08:04:51;18.60;76.70
55785;DHT22;41709;52.536;5.688;2022-08-21T08:07:17;18.70;76.50
55785;DHT22;41709;52.536;5.688;2022-08-21T08:09:43;18.70;76.50
55785;DHT22;41709;52.536;5.688;2022-08-21T08:12:08;18.80;76.50
55785;DHT22;41709;52.536;5.688;2022-08-21T08:14:35;18.80;76.50
55785;DHT22;41709;52.536;5.688;2022-08-21T08:17:01;18.80;77.00
55785;DHT22;41709;52.536;5.688;2022-08-21T08:19:28;18.90;76.90
55785;DHT22;41709;52.536;5.688;2022-08-21T08:21:53;18.90;77.10
55785;DHT22;41709;52.536;5.688;2022-08-21T08:24:19;18.90;77.30
55785;DHT22;41709;52.536;5.688;2022-08-21T08:26:45;19.00;77.60
55785;DHT22;41709;52.536;5.688;2022-08-21T08:29:11;19.00;77.50
55785;DHT22;41709;52.536;5.688;2022-08-21T08:31:37;19.00;77.20
55785;DHT22;41709;52.536;5.688;2022-08-21T08:34:02;19.10;77.60
55785;DHT22;41709;52.536;5.688;2022-08-21T08:36:37;19.20;77.40
55785;DHT22;41709;52.536;5.688;2022-08-21T08:39:04;19.20;77.20
55785;DHT22;41709;52.536;5.688;2022-08-21T08:41:31;19.20;77.50
55785;DHT22;41709;52.536;5.688;2022-08-21T08:44:03;19.20;77.10
55785;DHT22;41709;52.536;5.688;2022-08-21T08:46:38;19.30;77.30
55785;DHT22;41709;52.536;5.688;2022-08-21T08:49:13;19.40;77.10
55785;DHT22;41709;52.536;5.688;2022-08-21T08:54:25;19.50;76.70
55785;DHT22;41709;52.536;5.688;2022-08-21T08:56:53;19.60;76.70
55785;DHT22;41709;52.536;5.688;2022-08-21T08:59:27;19.70;77.10
55785;DHT22;41709;52.536;5.688;2022-08-21T09:01:55;19.80;77.30
55785;DHT22;41709;52.536;5.688;2022-08-21T09:04:26;19.80;76.60
55785;DHT22;41709;52.536;5.688;2022-08-21T09:07:19;19.90;76.20
55785;DHT22;41709;52.536;5.688;2022-08-21T09:10:12;19.90;75.30
55785;DHT22;41709;52.536;5.688;2022-08-21T09:12:59;19.90;75.70
55785;DHT22;41709;52.536;5.688;2022-08-21T09:21:06;20.00;74.80
55785;DHT22;41709;52.536;5.688;2022-08-21T09:23:52;20.10;75.20
55785;DHT22;41709;52.536;5.688;2022-08-21T09:26:24;20.10;75.00
55785;DHT22;41709;52.536;5.688;2022-08-21T09:28:57;20.20;75.00
55785;DHT22;41709;52.536;5.688;2022-08-21T09:31:35;20.30;74.90
55785;DHT22;41709;52.536;5.688;2022-08-21T09:34:09;20.40;73.30
55785;DHT22;41709;52.536;5.688;2022-08-21T09:36:47;20.50;73.50
55785;DHT22;41709;52.536;5.688;2022-08-21T09:39:27;20.50;73.80
55785;DHT22;41709;52.536;5.688;2022-08-21T09:42:01;20.60;73.00
55785;DHT22;41709;52.536;5.688;2022-08-21T09:44:30;20.70;72.60
55785;DHT22;41709;52.536;5.688;2022-08-21T09:46:57;20.90;72.70
55785;DHT22;41709;52.536;5.688;2022-08-21T09:51:54;21.00;71.10
55785;DHT22;41709;52.536;5.688;2022-08-21T09:54:28;21.10;71.40
55785;DHT22;41709;52.536;5.688;2022-08-21T09:57:00;21.10;70.80
55785;DHT22;41709;52.536;5.688;2022-08-21T09:59:45;21.20;70.80
55785;DHT22;41709;52.536;5.688;2022-08-21T10:02:32;21.20;70.70
55785;DHT22;41709;52.536;5.688;2022-08-21T10:05:07;21.30;70.70
55785;DHT22;41709;52.536;5.688;2022-08-21T10:07:37;21.30;70.60
55785;DHT22;41709;52.536;5.688;2022-08-21T10:10:13;21.30;69.30
55785;DHT22;41709;52.536;5.688;2022-08-21T10:16:09;21.40;70.20
55785;DHT22;41709;52.536;5.688;2022-08-21T10:30:00;21.30;65.50
55785;DHT22;41709;52.536;5.688;2022-08-21T10:40:28;21.30;69.30
55785;DHT22;41709;52.536;5.688;2022-08-21T10:48:38;21.50;68.20
55785;DHT22;41709;52.536;5.688;2022-08-21T10:56:31;21.80;66.70
55785;DHT22;41709;52.536;5.688;2022-08-21T10:59:07;21.80;66.80
55785;DHT22;41709;52.536;5.688;2022-08-21T11:04:40;21.90;66.70
55785;DHT22;41709;52.536;5.688;2022-08-21T11:07:26;22.00;65.50
55785;DHT22;41709;52.536;5.688;2022-08-21T11:09:56;22.00;66.60
55785;DHT22;41709;52.536;5.688;2022-08-21T11:12:42;22.10;65.80
55785;DHT22;41709;52.536;5.688;2022-08-21T11:18:35;22.20;66.60
55785;DHT22;41709;52.536;5.688;2022-08-21T11:23:37;22.30;65.80
55785;DHT22;41709;52.536;5.688;2022-08-21T11:26:15;22.40;64.70
55785;DHT22;41709;52.536;5.688;2022-08-21T11:28:52;22.50;65.20
55785;DHT22;41709;52.536;5.688;2022-08-21T11:37:16;22.50;64.20
55785;DHT22;41709;52.536;5.688;2022-08-21T11:40:16;22.60;64.30
55785;DHT22;41709;52.536;5.688;2022-08-21T11:45:54;22.60;63.90
55785;DHT22;41709;52.536;5.688;2022-08-21T11:51:13;22.60;64.10
55785;DHT22;41709;52.536;5.688;2022-08-21T11:54:48;22.70;63.50
55785;DHT22;41709;52.536;5.688;2022-08-21T11:56:51;22.80;63.30
55785;DHT22;41709;52.536;5.688;2022-08-21T11:59:43;22.90;62.70
55785;DHT22;41709;52.536;5.688;2022-08-21T12:02:18;22.80;62.30
55785;DHT22;41709;52.536;5.688;2022-08-21T12:04:55;22.60;62.90
55785;DHT22;41709;52.536;5.688;2022-08-21T12:10:00;22.50;62.60
55785;DHT22;41709;52.536;5.688;2022-08-21T12:12:35;22.50;61.50
55785;DHT22;41709;52.536;5.688;2022-08-21T12:15:25;22.10;62.30
55785;DHT22;41709;52.536;5.688;2022-08-21T12:21:17;22.10;63.10
55785;DHT22;41709;52.536;5.688;2022-08-21T12:23:48;22.10;61.80
55785;DHT22;41709;52.536;5.688;2022-08-21T12:26:25;22.00;63.00
55785;DHT22;41709;52.536;5.688;2022-08-21T12:29:45;22.00;64.20
55785;DHT22;41709;52.536;5.688;2022-08-21T12:32:01;22.10;63.90
55785;DHT22;41709;52.536;5.688;2022-08-21T12:34:40;22.10;64.70
55785;DHT22;41709;52.536;5.688;2022-08-21T12:37:20;22.20;64.10
55785;DHT22;41709;52.536;5.688;2022-08-21T12:39:49;22.30;63.10
55785;DHT22;41709;52.536;5.688;2022-08-21T12:42:52;22.30;63.00
55785;DHT22;41709;52.536;5.688;2022-08-21T12:47:54;22.10;60.70
55785;DHT22;41709;52.536;5.688;2022-08-21T12:50:29;22.10;61.10
55785;DHT22;41709;52.536;5.688;2022-08-21T12:53:12;22.20;60.10
55785;DHT22;41709;52.536;5.688;2022-08-21T12:55:42;22.20;60.20
55785;DHT22;41709;52.536;5.688;2022-08-21T12:58:21;22.20;60.40
55785;DHT22;41709;52.536;5.688;2022-08-21T13:00:54;22.40;59.90
55785;DHT22;41709;52.536;5.688;2022-08-21T13:03:22;22.50;59.80
55785;DHT22;41709;52.536;5.688;2022-08-21T13:05:48;22.50;61.60
55785;DHT22;41709;52.536;5.688;2022-08-21T13:08:19;22.50;61.60
55785;DHT22;41709;52.536;5.688;2022-08-21T13:10:48;22.70;61.40
55785;DHT22;41709;52.536;5.688;2022-08-21T13:13:22;22.70;62.00
55785;DHT22;41709;52.536;5.688;2022-08-21T13:15:48;22.80;59.90
55785;DHT22;41709;52.536;5.688;2022-08-21T13:18:27;22.90;60.30
55785;DHT22;41709;52.536;5.688;2022-08-21T13:21:02;22.90;59.20
55785;DHT22;41709;52.536;5.688;2022-08-21T13:23:30;22.90;60.60
55785;DHT22;41709;52.536;5.688;2022-08-21T13:25:56;23.00;59.90
55785;DHT22;41709;52.536;5.688;2022-08-21T13:28:22;23.10;58.10
55785;DHT22;41709;52.536;5.688;2022-08-21T13:30:50;23.00;60.30
55785;DHT22;41709;52.536;5.688;2022-08-21T13:33:18;23.00;58.90
55785;DHT22;41709;52.536;5.688;2022-08-21T13:38:23;23.00;59.20
55785;DHT22;41709;52.536;5.688;2022-08-21T13:40:54;23.10;58.70
55785;DHT22;41709;52.536;5.688;2022-08-21T13:43:30;23.10;58.10
55785;DHT22;41709;52.536;5.688;2022-08-21T13:45:56;23.10;56.10
55785;DHT22;41709;52.536;5.688;2022-08-21T13:48:25;23.30;58.00
55785;DHT22;41709;52.536;5.688;2022-08-21T13:50:54;23.40;57.10
55785;DHT22;41709;52.536;5.688;2022-08-21T13:53:27;23.50;56.90
55785;DHT22;41709;52.536;5.688;2022-08-21T13:55:54;23.60;57.00
55785;DHT22;41709;52.536;5.688;2022-08-21T13:58:29;23.70;55.20
55785;DHT22;41709;52.536;5.688;2022-08-21T14:00:56;23.80;54.50
55785;DHT22;41709;52.536;5.688;2022-08-21T14:05:57;23.80;54.20
55785;DHT22;41709;52.536;5.688;2022-08-21T14:08:25;23.90;54.00
55785;DHT22;41709;52.536;5.688;2022-08-21T14:10:52;23.80;54.50
55785;DHT22;41709;52.536;5.688;2022-08-21T14:15:59;23.70;54.90
55785;DHT22;41709;52.536;5.688;2022-08-21T14:18:26;23.70;55.80
55785;DHT22;41709;52.536;5.688;2022-08-21T14:21:07;23.90;55.10
55785;DHT22;41709;52.536;5.688;2022-08-21T14:23:33;23.90;53.70
55785;DHT22;41709;52.536;5.688;2022-08-21T14:26:01;23.90;52.60
55785;DHT22;41709;52.536;5.688;2022-08-21T14:28:28;23.90;52.40
55785;DHT22;41709;52.536;5.688;2022-08-21T14:30:57;23.80;53.00
55785;DHT22;41709;52.536;5.688;2022-08-21T14:33:27;23.70;52.80
55785;DHT22;41709;52.536;5.688;2022-08-21T14:35:53;23.60;53.10
55785;DHT22;41709;52.536;5.688;2022-08-21T14:38:22;23.50;54.30
55785;DHT22;41709;52.536;5.688;2022-08-21T14:40:53;23.40;53.40
55785;DHT22;41709;52.536;5.688;2022-08-21T14:43:19;23.40;52.80
55785;DHT22;41709;52.536;5.688;2022-08-21T14:45:45;23.40;52.00
55785;DHT22;41709;52.536;5.688;2022-08-21T14:48:11;23.30;52.30
55785;DHT22;41709;52.536;5.688;2022-08-21T14:50:37;23.30;53.30
55785;DHT22;41709;52.536;5.688;2022-08-21T14:53:03;23.20;52.50
55785;DHT22;41709;52.536;5.688;2022-08-21T14:55:29;23.30;53.10
55785;DHT22;41709;52.536;5.688;2022-08-21T14:57:57;23.20;52.60
55785;DHT22;41709;52.536;5.688;2022-08-21T15:00:24;23.20;53.30
55785;DHT22;41709;52.536;5.688;2022-08-21T15:02:50;23.20;51.90
55785;DHT22;41709;52.536;5.688;2022-08-21T15:05:17;23.10;52.10
55785;DHT22;41709;52.536;5.688;2022-08-21T15:07:43;23.10;53.40
55785;DHT22;41709;52.536;5.688;2022-08-21T15:10:11;23.10;53.20
55785;DHT22;41709;52.536;5.688;2022-08-21T15:12:37;23.20;53.50
55785;DHT22;41709;52.536;5.688;2022-08-21T15:15:05;23.20;52.90
55785;DHT22;41709;52.536;5.688;2022-08-21T15:17:31;23.10;51.50
55785;DHT22;41709;52.536;5.688;2022-08-21T15:19:57;23.10;51.90
55785;DHT22;41709;52.536;5.688;2022-08-21T15:22:22;23.20;53.40
55785;DHT22;41709;52.536;5.688;2022-08-21T15:24:48;23.20;55.20
55785;DHT22;41709;52.536;5.688;2022-08-21T15:27:15;23.20;54.30
55785;DHT22;41709;52.536;5.688;2022-08-21T15:29:42;23.10;54.90
55785;DHT22;41709;52.536;5.688;2022-08-21T15:32:27;23.10;53.10
55785;DHT22;41709;52.536;5.688;2022-08-21T15:34:56;23.00;53.30
55785;DHT22;41709;52.536;5.688;2022-08-21T15:37:23;23.10;53.10
55785;DHT22;41709;52.536;5.688;2022-08-21T15:39:49;23.10;53.00
55785;DHT22;41709;52.536;5.688;2022-08-21T15:42:16;23.00;53.50
55785;DHT22;41709;52.536;5.688;2022-08-21T15:44:42;23.00;53.20
55785;DHT22;41709;52.536;5.688;2022-08-21T15:47:14;22.90;52.80
55785;DHT22;41709;52.536;5.688;2022-08-21T15:49:41;23.00;53.60
55785;DHT22;41709;52.536;5.688;2022-08-21T15:52:17;23.00;54.60
55785;DHT22;41709;52.536;5.688;2022-08-21T15:54:43;23.00;53.90
55785;DHT22;41709;52.536;5.688;2022-08-21T15:57:13;23.10;52.20
55785;DHT22;41709;52.536;5.688;2022-08-21T15:59:42;23.10;53.90
55785;DHT22;41709;52.536;5.688;2022-08-21T16:02:22;23.20;53.20
55785;DHT22;41709;52.536;5.688;2022-08-21T16:04:48;23.20;54.10
55785;DHT22;41709;52.536;5.688;2022-08-21T16:07:14;23.20;52.10
55785;DHT22;41709;52.536;5.688;2022-08-21T16:09:41;23.20;50.60
55785;DHT22;41709;52.536;5.688;2022-08-21T16:12:07;23.20;51.90
55785;DHT22;41709;52.536;5.688;2022-08-21T16:14:35;23.20;51.30
55785;DHT22;41709;52.536;5.688;2022-08-21T16:17:04;23.20;51.40
55785;DHT22;41709;52.536;5.688;2022-08-21T16:19:30;23.20;52.00
55785;DHT22;41709;52.536;5.688;2022-08-21T16:21:56;23.20;52.60
55785;DHT22;41709;52.536;5.688;2022-08-21T16:24:22;23.30;51.40
55785;DHT22;41709;52.536;5.688;2022-08-21T16:26:48;23.20;50.90
55785;DHT22;41709;52.536;5.688;2022-08-21T16:29:14;23.00;51.50
55785;DHT22;41709;52.536;5.688;2022-08-21T16:31:40;23.00;52.40
55785;DHT22;41709;52.536;5.688;2022-08-21T16:34:06;23.00;52.90
55785;DHT22;41709;52.536;5.688;2022-08-21T16:36:32;23.10;53.10
55785;DHT22;41709;52.536;5.688;2022-08-21T16:38:58;23.20;53.20
55785;DHT22;41709;52.536;5.688;2022-08-21T16:41:30;23.30;52.90
55785;DHT22;41709;52.536;5.688;2022-08-21T16:43:56;23.40;53.00
55785;DHT22;41709;52.536;5.688;2022-08-21T16:46:21;23.40;52.90
55785;DHT22;41709;52.536;5.688;2022-08-21T16:48:47;23.30;53.20
55785;DHT22;41709;52.536;5.688;2022-08-21T16:51:15;23.20;52.60
55785;DHT22;41709;52.536;5.688;2022-08-21T16:53:41;23.20;53.00
55785;DHT22;41709;52.536;5.688;2022-08-21T16:56:08;23.20;54.20
55785;DHT22;41709;52.536;5.688;2022-08-21T16:58:36;23.10;54.20
55785;DHT22;41709;52.536;5.688;2022-08-21T17:01:08;23.10;54.30
55785;DHT22;41709;52.536;5.688;2022-08-21T17:03:40;23.00;55.40
55785;DHT22;41709;52.536;5.688;2022-08-21T17:06:07;23.10;55.60